메인 페이지
METAR-TAF:

METAR-TAF

공항 :

자헤단 공항

자헤단, 이란

위도: 29-28N, 경도: 060-53E, 고도: 1370m

현재 날씨관측

예보는 21분 전, 23:00시(UTC)에 발표되었습니다.
북동10kt
온도 11°C
습도 47%
기압 1020 hPa
시정: 6000m

METAR: OIZH 242300Z 04010KT 6000 NSC 11/00 Q1019 A3011

시각: 03:51 (23:21 UTC)

예보

예보는 5 시간 51분 전, 17:30시(UTC)에 발표되었습니다.
예보 대상 시간: 24일 18시부터 25일 24시까지 (UTC)
북동10kt
시정: 5000m
황사
전환 중
25일 05시부터 25일 07시까지 (UTC)
시정: 7000m
일시적
25일 06시부터 25일 12시까지 (UTC)
동북동18kt, 순간 최대 풍속 22kt
시정: 4000m

TAF: OIZH 241730Z 2418/2524 04010KT 5000 DU NSC BECMG 2505/2507 7000 TEMPO 2506/2512 06018G22KT 4000 SA/DU

4,000개 이상의 공항 관측 자료 및 예보 (METAR 및 TAF 보고).

지도상에서 검색 가능한 기상관측소가 노란 점과 빨간 점으로 표시되어 있습니다.

기상관측소 명을 보려면 표시 위로 마우스를 이동하세요.

날씨 관측과 예보를 보려면 클릭하세요.

지도 변경 : 확대하려면 엑스 표시가 있는 녹색 버튼, 축소하려면 빼기 표시가 있는 녹색 버튼, 다음 페이지의 지도를 보려면 녹색 화살표를 클릭하세요.


METAR-TAF: